sensor_id;sensor_type;location;lat;lon;timestamp;P1;durP1;ratioP1;P2;durP2;ratioP2
65202;SDS011;51788;45.124;38.966;2023-08-06T00:00:20;8.75;;;5.40;;
65202;SDS011;51788;45.124;38.966;2023-08-06T00:02:47;18.02;;;5.55;;
65202;SDS011;51788;45.124;38.966;2023-08-06T00:05:13;7.80;;;5.60;;
65202;SDS011;51788;45.124;38.966;2023-08-06T00:07:39;5.93;;;5.32;;
65202;SDS011;51788;45.124;38.966;2023-08-06T00:10:05;6.00;;;5.05;;
65202;SDS011;51788;45.124;38.966;2023-08-06T00:12:31;11.23;;;5.75;;
65202;SDS011;51788;45.124;38.966;2023-08-06T00:14:57;6.57;;;5.10;;
65202;SDS011;51788;45.124;38.966;2023-08-06T00:17:23;6.60;;;5.00;;
65202;SDS011;51788;45.124;38.966;2023-08-06T00:19:50;10.13;;;4.93;;
65202;SDS011;51788;45.124;38.966;2023-08-06T00:22:16;9.23;;;5.32;;
65202;SDS011;51788;45.124;38.966;2023-08-06T00:24:42;6.80;;;5.18;;
65202;SDS011;51788;45.124;38.966;2023-08-06T00:27:08;5.38;;;4.88;;
65202;SDS011;51788;45.124;38.966;2023-08-06T00:29:33;14.40;;;5.03;;
65202;SDS011;51788;45.124;38.966;2023-08-06T00:31:59;11.35;;;4.55;;
65202;SDS011;51788;45.124;38.966;2023-08-06T00:34:25;6.05;;;4.78;;
65202;SDS011;51788;45.124;38.966;2023-08-06T00:36:51;6.82;;;4.82;;
65202;SDS011;51788;45.124;38.966;2023-08-06T00:39:19;5.15;;;4.75;;
65202;SDS011;51788;45.124;38.966;2023-08-06T00:41:45;10.13;;;4.90;;
65202;SDS011;51788;45.124;38.966;2023-08-06T00:44:11;14.07;;;4.70;;
65202;SDS011;51788;45.124;38.966;2023-08-06T00:46:38;9.90;;;4.45;;
65202;SDS011;51788;45.124;38.966;2023-08-06T00:49:05;8.63;;;4.65;;
65202;SDS011;51788;45.124;38.966;2023-08-06T00:51:31;10.15;;;5.28;;
65202;SDS011;51788;45.124;38.966;2023-08-06T00:53:58;9.65;;;4.78;;
65202;SDS011;51788;45.124;38.966;2023-08-06T00:56:24;5.63;;;5.07;;
65202;SDS011;51788;45.124;38.966;2023-08-06T00:58:50;22.83;;;4.85;;
65202;SDS011;51788;45.124;38.966;2023-08-06T01:01:17;12.10;;;4.80;;
65202;SDS011;51788;45.124;38.966;2023-08-06T01:03:43;5.80;;;4.80;;
65202;SDS011;51788;45.124;38.966;2023-08-06T01:06:09;11.25;;;4.50;;
65202;SDS011;51788;45.124;38.966;2023-08-06T01:13:49;7.13;;;4.43;;
65202;SDS011;51788;45.124;38.966;2023-08-06T01:16:20;5.53;;;4.47;;
65202;SDS011;51788;45.124;38.966;2023-08-06T01:18:47;9.80;;;4.55;;
65202;SDS011;51788;45.124;38.966;2023-08-06T01:21:18;9.23;;;4.95;;
65202;SDS011;51788;45.124;38.966;2023-08-06T01:23:45;4.72;;;4.15;;
65202;SDS011;51788;45.124;38.966;2023-08-06T01:29:03;7.50;;;4.63;;
65202;SDS011;51788;45.124;38.966;2023-08-06T01:31:37;13.70;;;4.97;;
65202;SDS011;51788;45.124;38.966;2023-08-06T01:34:06;6.32;;;5.05;;
65202;SDS011;51788;45.124;38.966;2023-08-06T01:36:36;13.32;;;6.40;;
65202;SDS011;51788;45.124;38.966;2023-08-06T01:39:02;8.85;;;4.70;;
65202;SDS011;51788;45.124;38.966;2023-08-06T01:41:30;10.25;;;5.00;;
65202;SDS011;51788;45.124;38.966;2023-08-06T01:43:56;15.25;;;4.85;;
65202;SDS011;51788;45.124;38.966;2023-08-06T01:46:24;7.03;;;4.43;;
65202;SDS011;51788;45.124;38.966;2023-08-06T01:48:50;9.98;;;5.18;;
65202;SDS011;51788;45.124;38.966;2023-08-06T01:51:16;11.63;;;4.82;;
65202;SDS011;51788;45.124;38.966;2023-08-06T01:53:43;9.57;;;5.03;;
65202;SDS011;51788;45.124;38.966;2023-08-06T01:56:09;4.82;;;4.25;;
65202;SDS011;51788;45.124;38.966;2023-08-06T01:58:35;7.18;;;4.88;;
65202;SDS011;51788;45.124;38.966;2023-08-06T02:01:01;7.93;;;5.28;;
65202;SDS011;51788;45.124;38.966;2023-08-06T02:03:27;11.60;;;4.78;;
65202;SDS011;51788;45.124;38.966;2023-08-06T02:05:53;10.55;;;4.93;;
65202;SDS011;51788;45.124;38.966;2023-08-06T02:08:19;9.45;;;5.18;;
65202;SDS011;51788;45.124;38.966;2023-08-06T02:10:46;6.10;;;5.22;;
65202;SDS011;51788;45.124;38.966;2023-08-06T02:13:12;8.10;;;4.88;;
65202;SDS011;51788;45.124;38.966;2023-08-06T02:15:44;8.15;;;4.55;;
65202;SDS011;51788;45.124;38.966;2023-08-06T02:18:13;8.90;;;5.13;;
65202;SDS011;51788;45.124;38.966;2023-08-06T02:20:40;7.78;;;4.70;;
65202;SDS011;51788;45.124;38.966;2023-08-06T02:23:07;8.25;;;5.57;;
65202;SDS011;51788;45.124;38.966;2023-08-06T02:25:34;9.38;;;5.05;;
65202;SDS011;51788;45.124;38.966;2023-08-06T02:28:00;5.88;;;5.35;;
65202;SDS011;51788;45.124;38.966;2023-08-06T02:30:26;4.95;;;4.57;;
65202;SDS011;51788;45.124;38.966;2023-08-06T02:32:52;10.45;;;5.18;;
65202;SDS011;51788;45.124;38.966;2023-08-06T02:35:18;16.77;;;5.25;;
65202;SDS011;51788;45.124;38.966;2023-08-06T02:37:45;6.20;;;5.60;;
65202;SDS011;51788;45.124;38.966;2023-08-06T02:40:11;10.10;;;5.10;;
65202;SDS011;51788;45.124;38.966;2023-08-06T02:42:37;14.98;;;5.40;;
65202;SDS011;51788;45.124;38.966;2023-08-06T02:45:03;8.43;;;5.65;;
65202;SDS011;51788;45.124;38.966;2023-08-06T02:47:29;10.55;;;5.60;;
65202;SDS011;51788;45.124;38.966;2023-08-06T02:49:57;11.57;;;4.78;;
65202;SDS011;51788;45.124;38.966;2023-08-06T02:52:23;12.50;;;5.18;;
65202;SDS011;51788;45.124;38.966;2023-08-06T02:54:49;6.88;;;4.85;;
65202;SDS011;51788;45.124;38.966;2023-08-06T02:57:15;9.68;;;6.32;;
65202;SDS011;51788;45.124;38.966;2023-08-06T02:59:41;14.45;;;5.95;;
65202;SDS011;51788;45.124;38.966;2023-08-06T03:02:26;9.45;;;6.00;;
65202;SDS011;51788;45.124;38.966;2023-08-06T03:05:00;13.60;;;5.72;;
65202;SDS011;51788;45.124;38.966;2023-08-06T03:07:31;16.13;;;6.95;;
65202;SDS011;51788;45.124;38.966;2023-08-06T03:10:06;9.70;;;6.07;;
65202;SDS011;51788;45.124;38.966;2023-08-06T03:12:32;6.97;;;5.57;;
65202;SDS011;51788;45.124;38.966;2023-08-06T03:15:00;10.95;;;6.20;;
65202;SDS011;51788;45.124;38.966;2023-08-06T03:17:26;11.30;;;5.63;;
65202;SDS011;51788;45.124;38.966;2023-08-06T03:19:52;7.03;;;6.35;;
65202;SDS011;51788;45.124;38.966;2023-08-06T03:22:18;11.35;;;6.15;;
65202;SDS011;51788;45.124;38.966;2023-08-06T03:24:44;10.13;;;5.80;;
65202;SDS011;51788;45.124;38.966;2023-08-06T03:27:12;11.18;;;6.10;;
65202;SDS011;51788;45.124;38.966;2023-08-06T03:29:41;12.50;;;6.10;;
65202;SDS011;51788;45.124;38.966;2023-08-06T03:32:07;6.38;;;5.80;;
65202;SDS011;51788;45.124;38.966;2023-08-06T03:34:33;15.02;;;5.80;;
65202;SDS011;51788;45.124;38.966;2023-08-06T03:36:59;8.00;;;5.25;;
65202;SDS011;51788;45.124;38.966;2023-08-06T03:39:26;9.40;;;6.00;;
65202;SDS011;51788;45.124;38.966;2023-08-06T03:41:52;16.73;;;5.55;;
65202;SDS011;51788;45.124;38.966;2023-08-06T03:44:18;6.85;;;5.45;;
65202;SDS011;51788;45.124;38.966;2023-08-06T03:46:45;18.42;;;6.15;;
65202;SDS011;51788;45.124;38.966;2023-08-06T03:49:11;9.90;;;5.18;;
65202;SDS011;51788;45.124;38.966;2023-08-06T03:51:36;8.32;;;5.78;;
65202;SDS011;51788;45.124;38.966;2023-08-06T03:54:03;9.98;;;5.75;;
65202;SDS011;51788;45.124;38.966;2023-08-06T03:56:29;14.38;;;5.68;;
65202;SDS011;51788;45.124;38.966;2023-08-06T03:58:55;11.95;;;5.68;;
65202;SDS011;51788;45.124;38.966;2023-08-06T04:01:23;10.23;;;5.78;;
65202;SDS011;51788;45.124;38.966;2023-08-06T04:03:49;6.97;;;5.57;;
65202;SDS011;51788;45.124;38.966;2023-08-06T04:06:15;18.23;;;5.50;;
65202;SDS011;51788;45.124;38.966;2023-08-06T04:08:41;11.20;;;5.35;;
65202;SDS011;51788;45.124;38.966;2023-08-06T04:11:07;12.10;;;5.95;;
65202;SDS011;51788;45.124;38.966;2023-08-06T04:13:33;8.70;;;5.60;;
65202;SDS011;51788;45.124;38.966;2023-08-06T04:16:02;13.55;;;5.55;;
65202;SDS011;51788;45.124;38.966;2023-08-06T04:18:30;11.15;;;5.35;;
65202;SDS011;51788;45.124;38.966;2023-08-06T04:20:56;10.90;;;5.85;;
65202;SDS011;51788;45.124;38.966;2023-08-06T04:23:23;13.82;;;5.22;;
65202;SDS011;51788;45.124;38.966;2023-08-06T04:25:50;34.42;;;5.60;;
65202;SDS011;51788;45.124;38.966;2023-08-06T04:28:16;15.52;;;5.70;;
65202;SDS011;51788;45.124;38.966;2023-08-06T04:30:42;16.95;;;5.18;;
65202;SDS011;51788;45.124;38.966;2023-08-06T04:33:09;8.15;;;5.10;;
65202;SDS011;51788;45.124;38.966;2023-08-06T04:35:35;11.98;;;5.25;;
65202;SDS011;51788;45.124;38.966;2023-08-06T04:38:01;12.38;;;5.43;;
65202;SDS011;51788;45.124;38.966;2023-08-06T04:40:27;9.60;;;5.72;;
65202;SDS011;51788;45.124;38.966;2023-08-06T04:42:53;7.40;;;5.45;;
65202;SDS011;51788;45.124;38.966;2023-08-06T04:45:19;6.15;;;4.85;;
65202;SDS011;51788;45.124;38.966;2023-08-06T04:47:46;13.15;;;5.60;;
65202;SDS011;51788;45.124;38.966;2023-08-06T04:50:11;15.63;;;6.05;;
65202;SDS011;51788;45.124;38.966;2023-08-06T04:52:37;10.65;;;5.80;;
65202;SDS011;51788;45.124;38.966;2023-08-06T04:55:03;15.88;;;5.10;;
65202;SDS011;51788;45.124;38.966;2023-08-06T04:57:31;16.20;;;5.60;;
65202;SDS011;51788;45.124;38.966;2023-08-06T04:59:57;19.52;;;6.00;;
65202;SDS011;51788;45.124;38.966;2023-08-06T05:02:23;24.45;;;5.63;;
65202;SDS011;51788;45.124;38.966;2023-08-06T05:04:49;10.82;;;5.25;;
65202;SDS011;51788;45.124;38.966;2023-08-06T05:07:15;15.00;;;5.15;;
65202;SDS011;51788;45.124;38.966;2023-08-06T05:09:40;18.00;;;5.75;;
65202;SDS011;51788;45.124;38.966;2023-08-06T05:12:07;13.63;;;4.72;;
65202;SDS011;51788;45.124;38.966;2023-08-06T05:14:33;13.45;;;4.40;;
65202;SDS011;51788;45.124;38.966;2023-08-06T05:16:58;9.80;;;5.00;;
65202;SDS011;51788;45.124;38.966;2023-08-06T05:19:25;11.57;;;4.70;;
65202;SDS011;51788;45.124;38.966;2023-08-06T05:21:50;20.20;;;5.93;;
65202;SDS011;51788;45.124;38.966;2023-08-06T05:24:16;26.08;;;5.05;;
65202;SDS011;51788;45.124;38.966;2023-08-06T05:26:42;28.08;;;5.38;;
65202;SDS011;51788;45.124;38.966;2023-08-06T05:29:11;15.48;;;4.50;;
65202;SDS011;51788;45.124;38.966;2023-08-06T05:31:37;7.15;;;4.85;;
65202;SDS011;51788;45.124;38.966;2023-08-06T05:34:03;9.80;;;3.92;;
65202;SDS011;51788;45.124;38.966;2023-08-06T05:36:29;9.90;;;4.70;;
65202;SDS011;51788;45.124;38.966;2023-08-06T05:38:55;19.00;;;5.30;;
65202;SDS011;51788;45.124;38.966;2023-08-06T05:41:21;7.95;;;4.50;;
65202;SDS011;51788;45.124;38.966;2023-08-06T05:43:47;9.93;;;4.35;;
65202;SDS011;51788;45.124;38.966;2023-08-06T05:46:13;8.73;;;4.53;;
65202;SDS011;51788;45.124;38.966;2023-08-06T05:48:39;14.85;;;4.00;;
65202;SDS011;51788;45.124;38.966;2023-08-06T05:51:05;19.50;;;4.72;;
65202;SDS011;51788;45.124;38.966;2023-08-06T05:53:31;8.13;;;4.40;;
65202;SDS011;51788;45.124;38.966;2023-08-06T05:55:57;18.23;;;5.07;;
65202;SDS011;51788;45.124;38.966;2023-08-06T05:58:23;15.13;;;3.83;;
65202;SDS011;51788;45.124;38.966;2023-08-06T06:00:51;16.08;;;4.43;;
65202;SDS011;51788;45.124;38.966;2023-08-06T06:03:17;5.60;;;3.40;;
65202;SDS011;51788;45.124;38.966;2023-08-06T06:05:43;9.23;;;4.22;;
65202;SDS011;51788;45.124;38.966;2023-08-06T06:08:10;17.13;;;3.95;;
65202;SDS011;51788;45.124;38.966;2023-08-06T06:10:36;11.52;;;4.00;;
65202;SDS011;51788;45.124;38.966;2023-08-06T06:13:02;11.27;;;3.97;;
65202;SDS011;51788;45.124;38.966;2023-08-06T06:15:28;7.22;;;3.88;;
65202;SDS011;51788;45.124;38.966;2023-08-06T06:17:54;21.00;;;3.97;;
65202;SDS011;51788;45.124;38.966;2023-08-06T06:20:20;4.57;;;3.80;;
65202;SDS011;51788;45.124;38.966;2023-08-06T06:22:46;6.65;;;3.60;;
65202;SDS011;51788;45.124;38.966;2023-08-06T06:25:12;4.85;;;4.00;;
65202;SDS011;51788;45.124;38.966;2023-08-06T06:27:38;11.90;;;4.13;;
65202;SDS011;51788;45.124;38.966;2023-08-06T06:30:04;21.45;;;4.25;;
65202;SDS011;51788;45.124;38.966;2023-08-06T06:32:30;19.70;;;3.70;;
65202;SDS011;51788;45.124;38.966;2023-08-06T06:34:56;17.45;;;3.90;;
65202;SDS011;51788;45.124;38.966;2023-08-06T06:37:23;27.65;;;4.45;;
65202;SDS011;51788;45.124;38.966;2023-08-06T06:39:49;19.13;;;4.18;;
65202;SDS011;51788;45.124;38.966;2023-08-06T06:42:15;7.75;;;3.40;;
65202;SDS011;51788;45.124;38.966;2023-08-06T06:44:45;12.18;;;4.28;;
65202;SDS011;51788;45.124;38.966;2023-08-06T06:47:11;8.18;;;3.35;;
65202;SDS011;51788;45.124;38.966;2023-08-06T06:49:37;6.75;;;3.65;;
65202;SDS011;51788;45.124;38.966;2023-08-06T06:52:03;14.55;;;4.07;;
65202;SDS011;51788;45.124;38.966;2023-08-06T06:54:29;21.40;;;4.00;;
65202;SDS011;51788;45.124;38.966;2023-08-06T06:56:55;8.63;;;3.35;;
65202;SDS011;51788;45.124;38.966;2023-08-06T06:59:21;32.80;;;4.10;;
65202;SDS011;51788;45.124;38.966;2023-08-06T07:01:47;59.17;;;5.68;;
65202;SDS011;51788;45.124;38.966;2023-08-06T07:04:13;7.32;;;2.60;;
65202;SDS011;51788;45.124;38.966;2023-08-06T07:06:39;24.13;;;3.58;;
65202;SDS011;51788;45.124;38.966;2023-08-06T07:09:05;13.82;;;3.50;;
65202;SDS011;51788;45.124;38.966;2023-08-06T07:11:31;30.20;;;4.70;;
65202;SDS011;51788;45.124;38.966;2023-08-06T07:13:57;16.08;;;2.92;;
65202;SDS011;51788;45.124;38.966;2023-08-06T07:16:24;92.25;;;7.82;;
65202;SDS011;51788;45.124;38.966;2023-08-06T07:18:51;9.93;;;3.08;;
65202;SDS011;51788;45.124;38.966;2023-08-06T07:21:18;23.50;;;3.60;;
65202;SDS011;51788;45.124;38.966;2023-08-06T07:23:45;27.30;;;3.05;;
65202;SDS011;51788;45.124;38.966;2023-08-06T07:26:11;26.52;;;3.55;;
65202;SDS011;51788;45.124;38.966;2023-08-06T07:28:37;20.33;;;3.80;;
65202;SDS011;51788;45.124;38.966;2023-08-06T07:31:03;25.33;;;3.55;;
65202;SDS011;51788;45.124;38.966;2023-08-06T07:33:29;12.88;;;3.17;;
65202;SDS011;51788;45.124;38.966;2023-08-06T07:35:55;5.68;;;3.30;;
65202;SDS011;51788;45.124;38.966;2023-08-06T07:38:21;29.60;;;4.88;;
65202;SDS011;51788;45.124;38.966;2023-08-06T07:40:47;16.40;;;3.53;;
65202;SDS011;51788;45.124;38.966;2023-08-06T07:43:13;13.90;;;2.80;;
65202;SDS011;51788;45.124;38.966;2023-08-06T07:45:39;6.45;;;3.00;;
65202;SDS011;51788;45.124;38.966;2023-08-06T07:48:05;19.23;;;3.58;;
65202;SDS011;51788;45.124;38.966;2023-08-06T07:50:31;32.85;;;5.10;;
65202;SDS011;51788;45.124;38.966;2023-08-06T07:52:58;12.68;;;3.03;;
65202;SDS011;51788;45.124;38.966;2023-08-06T07:55:24;21.75;;;3.30;;
65202;SDS011;51788;45.124;38.966;2023-08-06T07:57:50;33.00;;;4.03;;
65202;SDS011;51788;45.124;38.966;2023-08-06T08:00:16;14.63;;;2.90;;
65202;SDS011;51788;45.124;38.966;2023-08-06T08:02:42;12.82;;;2.75;;
65202;SDS011;51788;45.124;38.966;2023-08-06T08:05:08;35.22;;;4.20;;
65202;SDS011;51788;45.124;38.966;2023-08-06T08:07:34;16.00;;;3.20;;
65202;SDS011;51788;45.124;38.966;2023-08-06T08:10:00;20.33;;;4.03;;
65202;SDS011;51788;45.124;38.966;2023-08-06T08:12:26;67.88;;;6.10;;
65202;SDS011;51788;45.124;38.966;2023-08-06T08:14:52;12.80;;;3.50;;
65202;SDS011;51788;45.124;38.966;2023-08-06T08:17:18;16.13;;;2.90;;
65202;SDS011;51788;45.124;38.966;2023-08-06T08:19:44;11.02;;;2.85;;
65202;SDS011;51788;45.124;38.966;2023-08-06T08:22:10;7.20;;;3.17;;
65202;SDS011;51788;45.124;38.966;2023-08-06T08:24:36;19.63;;;3.55;;
65202;SDS011;51788;45.124;38.966;2023-08-06T08:27:03;14.85;;;2.97;;
65202;SDS011;51788;45.124;38.966;2023-08-06T08:29:29;7.70;;;2.58;;
65202;SDS011;51788;45.124;38.966;2023-08-06T08:31:55;19.02;;;3.05;;
65202;SDS011;51788;45.124;38.966;2023-08-06T08:34:21;9.23;;;2.78;;
65202;SDS011;51788;45.124;38.966;2023-08-06T08:36:47;7.80;;;3.20;;
65202;SDS011;51788;45.124;38.966;2023-08-06T08:39:13;8.57;;;4.88;;
65202;SDS011;51788;45.124;38.966;2023-08-06T08:41:39;6.95;;;4.25;;
65202;SDS011;51788;45.124;38.966;2023-08-06T08:44:09;23.70;;;3.50;;
65202;SDS011;51788;45.124;38.966;2023-08-06T08:46:36;11.45;;;3.33;;
65202;SDS011;51788;45.124;38.966;2023-08-06T08:49:05;9.57;;;3.20;;
65202;SDS011;51788;45.124;38.966;2023-08-06T08:51:33;25.67;;;3.65;;
65202;SDS011;51788;45.124;38.966;2023-08-06T08:54:02;13.43;;;3.92;;
65202;SDS011;51788;45.124;38.966;2023-08-06T08:56:29;17.58;;;3.90;;
65202;SDS011;51788;45.124;38.966;2023-08-06T08:58:55;25.90;;;3.40;;
65202;SDS011;51788;45.124;38.966;2023-08-06T09:01:22;29.13;;;3.78;;
65202;SDS011;51788;45.124;38.966;2023-08-06T09:03:48;16.33;;;3.35;;
65202;SDS011;51788;45.124;38.966;2023-08-06T09:06:15;17.58;;;3.55;;
65202;SDS011;51788;45.124;38.966;2023-08-06T09:08:50;23.33;;;3.75;;
65202;SDS011;51788;45.124;38.966;2023-08-06T09:11:24;14.32;;;3.33;;
65202;SDS011;51788;45.124;38.966;2023-08-06T09:13:51;16.52;;;3.28;;
65202;SDS011;51788;45.124;38.966;2023-08-06T09:16:19;13.43;;;2.97;;
65202;SDS011;51788;45.124;38.966;2023-08-06T09:18:45;22.33;;;2.80;;
65202;SDS011;51788;45.124;38.966;2023-08-06T09:21:14;11.32;;;3.30;;
65202;SDS011;51788;45.124;38.966;2023-08-06T09:23:41;21.33;;;3.03;;
65202;SDS011;51788;45.124;38.966;2023-08-06T09:26:10;10.43;;;2.58;;
65202;SDS011;51788;45.124;38.966;2023-08-06T09:28:37;9.95;;;3.25;;
65202;SDS011;51788;45.124;38.966;2023-08-06T09:31:04;8.52;;;2.75;;
65202;SDS011;51788;45.124;38.966;2023-08-06T09:33:30;20.88;;;3.53;;
65202;SDS011;51788;45.124;38.966;2023-08-06T09:36:06;16.80;;;3.28;;
65202;SDS011;51788;45.124;38.966;2023-08-06T09:38:37;30.30;;;4.03;;
65202;SDS011;51788;45.124;38.966;2023-08-06T09:41:07;21.88;;;3.83;;
65202;SDS011;51788;45.124;38.966;2023-08-06T09:43:42;27.70;;;3.88;;
65202;SDS011;51788;45.124;38.966;2023-08-06T09:46:12;17.05;;;3.58;;
65202;SDS011;51788;45.124;38.966;2023-08-06T09:48:39;27.40;;;3.47;;
65202;SDS011;51788;45.124;38.966;2023-08-06T09:51:07;9.02;;;3.47;;
65202;SDS011;51788;45.124;38.966;2023-08-06T09:53:35;17.08;;;3.65;;
65202;SDS011;51788;45.124;38.966;2023-08-06T09:56:03;14.68;;;3.35;;
65202;SDS011;51788;45.124;38.966;2023-08-06T09:58:30;21.58;;;3.97;;
65202;SDS011;51788;45.124;38.966;2023-08-06T10:00:57;13.77;;;3.03;;
65202;SDS011;51788;45.124;38.966;2023-08-06T10:03:24;16.20;;;3.10;;
65202;SDS011;51788;45.124;38.966;2023-08-06T10:05:51;16.80;;;3.08;;
65202;SDS011;51788;45.124;38.966;2023-08-06T10:08:17;23.45;;;3.75;;
65202;SDS011;51788;45.124;38.966;2023-08-06T10:10:43;26.80;;;3.67;;
65202;SDS011;51788;45.124;38.966;2023-08-06T10:13:11;29.33;;;4.03;;
65202;SDS011;51788;45.124;38.966;2023-08-06T10:15:39;14.32;;;3.13;;
65202;SDS011;51788;45.124;38.966;2023-08-06T10:18:05;22.85;;;3.28;;
65202;SDS011;51788;45.124;38.966;2023-08-06T10:20:33;34.75;;;3.70;;
65202;SDS011;51788;45.124;38.966;2023-08-06T10:23:06;11.85;;;3.33;;
65202;SDS011;51788;45.124;38.966;2023-08-06T10:25:35;25.52;;;3.42;;
65202;SDS011;51788;45.124;38.966;2023-08-06T10:28:09;20.67;;;5.10;;
65202;SDS011;51788;45.124;38.966;2023-08-06T10:30:45;9.60;;;2.67;;
65202;SDS011;51788;45.124;38.966;2023-08-06T10:33:13;39.15;;;4.68;;
65202;SDS011;51788;45.124;38.966;2023-08-06T10:35:43;27.02;;;3.92;;
65202;SDS011;51788;45.124;38.966;2023-08-06T10:38:16;16.67;;;2.83;;
65202;SDS011;51788;45.124;38.966;2023-08-06T10:40:52;20.88;;;3.17;;
65202;SDS011;51788;45.124;38.966;2023-08-06T10:43:28;16.42;;;3.30;;
65202;SDS011;51788;45.124;38.966;2023-08-06T10:45:55;22.80;;;3.15;;
65202;SDS011;51788;45.124;38.966;2023-08-06T10:48:33;24.02;;;3.40;;
65202;SDS011;51788;45.124;38.966;2023-08-06T10:51:02;40.80;;;5.05;;
65202;SDS011;51788;45.124;38.966;2023-08-06T10:53:29;16.90;;;3.72;;
65202;SDS011;51788;45.124;38.966;2023-08-06T10:55:55;15.15;;;3.13;;
65202;SDS011;51788;45.124;38.966;2023-08-06T10:58:21;17.60;;;3.42;;
65202;SDS011;51788;45.124;38.966;2023-08-06T11:00:47;16.20;;;3.50;;
65202;SDS011;51788;45.124;38.966;2023-08-06T11:03:13;18.58;;;3.30;;
65202;SDS011;51788;45.124;38.966;2023-08-06T11:05:40;21.92;;;3.30;;
65202;SDS011;51788;45.124;38.966;2023-08-06T11:08:06;21.73;;;3.72;;
65202;SDS011;51788;45.124;38.966;2023-08-06T11:10:35;14.55;;;2.95;;
65202;SDS011;51788;45.124;38.966;2023-08-06T11:13:01;24.45;;;3.08;;
65202;SDS011;51788;45.124;38.966;2023-08-06T11:15:28;20.02;;;3.40;;
65202;SDS011;51788;45.124;38.966;2023-08-06T11:17:55;16.73;;;3.10;;
65202;SDS011;51788;45.124;38.966;2023-08-06T11:20:21;26.95;;;3.92;;
65202;SDS011;51788;45.124;38.966;2023-08-06T11:22:47;15.50;;;2.90;;
65202;SDS011;51788;45.124;38.966;2023-08-06T11:25:13;13.75;;;3.13;;
65202;SDS011;51788;45.124;38.966;2023-08-06T11:27:39;13.60;;;2.92;;
65202;SDS011;51788;45.124;38.966;2023-08-06T11:30:05;19.27;;;3.90;;
65202;SDS011;51788;45.124;38.966;2023-08-06T11:32:32;12.80;;;2.83;;
65202;SDS011;51788;45.124;38.966;2023-08-06T11:35:08;13.73;;;3.05;;
65202;SDS011;51788;45.124;38.966;2023-08-06T11:37:36;18.85;;;3.50;;
65202;SDS011;51788;45.124;38.966;2023-08-06T11:40:05;17.55;;;3.25;;
65202;SDS011;51788;45.124;38.966;2023-08-06T11:42:34;22.73;;;3.20;;
65202;SDS011;51788;45.124;38.966;2023-08-06T11:45:01;17.42;;;2.53;;
65202;SDS011;51788;45.124;38.966;2023-08-06T11:47:28;12.60;;;2.72;;
65202;SDS011;51788;45.124;38.966;2023-08-06T11:49:54;12.52;;;3.30;;
65202;SDS011;51788;45.124;38.966;2023-08-06T11:52:20;15.20;;;3.05;;
65202;SDS011;51788;45.124;38.966;2023-08-06T11:55:01;16.08;;;3.17;;
65202;SDS011;51788;45.124;38.966;2023-08-06T11:57:38;13.85;;;3.22;;
65202;SDS011;51788;45.124;38.966;2023-08-06T12:00:05;13.80;;;2.97;;
65202;SDS011;51788;45.124;38.966;2023-08-06T12:02:43;7.82;;;2.78;;
65202;SDS011;51788;45.124;38.966;2023-08-06T12:05:13;18.73;;;3.88;;
65202;SDS011;51788;45.124;38.966;2023-08-06T12:07:52;13.90;;;2.83;;
65202;SDS011;51788;45.124;38.966;2023-08-06T12:10:21;11.13;;;2.72;;
65202;SDS011;51788;45.124;38.966;2023-08-06T12:12:48;12.75;;;3.10;;
65202;SDS011;51788;45.124;38.966;2023-08-06T12:15:15;8.75;;;2.30;;
65202;SDS011;51788;45.124;38.966;2023-08-06T12:17:41;10.25;;;2.70;;
65202;SDS011;51788;45.124;38.966;2023-08-06T12:20:08;15.55;;;2.78;;
65202;SDS011;51788;45.124;38.966;2023-08-06T12:22:35;10.52;;;2.85;;
65202;SDS011;51788;45.124;38.966;2023-08-06T12:25:04;11.75;;;3.22;;
65202;SDS011;51788;45.124;38.966;2023-08-06T12:27:37;11.82;;;2.47;;
65202;SDS011;51788;45.124;38.966;2023-08-06T12:30:04;9.30;;;2.80;;
65202;SDS011;51788;45.124;38.966;2023-08-06T12:32:31;15.82;;;3.10;;
65202;SDS011;51788;45.124;38.966;2023-08-06T12:34:57;19.73;;;3.03;;
65202;SDS011;51788;45.124;38.966;2023-08-06T12:37:24;18.60;;;3.40;;
65202;SDS011;51788;45.124;38.966;2023-08-06T12:39:50;28.25;;;3.28;;
65202;SDS011;51788;45.124;38.966;2023-08-06T12:42:16;9.88;;;2.83;;
65202;SDS011;51788;45.124;38.966;2023-08-06T12:44:42;18.85;;;3.00;;
65202;SDS011;51788;45.124;38.966;2023-08-06T12:47:09;13.07;;;3.13;;
65202;SDS011;51788;45.124;38.966;2023-08-06T12:49:35;19.77;;;3.00;;
65202;SDS011;51788;45.124;38.966;2023-08-06T12:52:02;8.90;;;2.50;;
65202;SDS011;51788;45.124;38.966;2023-08-06T12:54:30;14.85;;;3.45;;
65202;SDS011;51788;45.124;38.966;2023-08-06T12:57:02;9.07;;;2.95;;
65202;SDS011;51788;45.124;38.966;2023-08-06T12:59:28;26.48;;;3.60;;
65202;SDS011;51788;45.124;38.966;2023-08-06T13:01:54;16.70;;;3.50;;
65202;SDS011;51788;45.124;38.966;2023-08-06T13:04:20;20.98;;;2.78;;
65202;SDS011;51788;45.124;38.966;2023-08-06T13:06:46;22.73;;;2.92;;
65202;SDS011;51788;45.124;38.966;2023-08-06T13:09:12;14.18;;;2.60;;
65202;SDS011;51788;45.124;38.966;2023-08-06T13:11:39;34.60;;;4.22;;
65202;SDS011;51788;45.124;38.966;2023-08-06T13:14:09;13.00;;;2.90;;
65202;SDS011;51788;45.124;38.966;2023-08-06T13:16:37;15.75;;;2.92;;
65202;SDS011;51788;45.124;38.966;2023-08-06T13:19:04;14.20;;;3.00;;
65202;SDS011;51788;45.124;38.966;2023-08-06T13:21:35;11.63;;;2.50;;
65202;SDS011;51788;45.124;38.966;2023-08-06T13:24:21;12.00;;;2.80;;
65202;SDS011;51788;45.124;38.966;2023-08-06T13:26:47;8.50;;;3.10;;
65202;SDS011;51788;45.124;38.966;2023-08-06T13:29:13;22.67;;;3.70;;
65202;SDS011;51788;45.124;38.966;2023-08-06T13:31:39;8.30;;;3.10;;
65202;SDS011;51788;45.124;38.966;2023-08-06T13:34:05;11.60;;;3.63;;
65202;SDS011;51788;45.124;38.966;2023-08-06T13:36:31;12.10;;;3.60;;
65202;SDS011;51788;45.124;38.966;2023-08-06T13:38:57;13.20;;;5.20;;
65202;SDS011;51788;45.124;38.966;2023-08-06T13:41:23;14.38;;;6.22;;
65202;SDS011;51788;45.124;38.966;2023-08-06T13:43:49;11.07;;;4.90;;
65202;SDS011;51788;45.124;38.966;2023-08-06T13:46:18;10.85;;;4.13;;
65202;SDS011;51788;45.124;38.966;2023-08-06T13:48:45;15.15;;;6.18;;
65202;SDS011;51788;45.124;38.966;2023-08-06T13:51:12;12.02;;;3.83;;
65202;SDS011;51788;45.124;38.966;2023-08-06T13:53:39;13.07;;;4.45;;
65202;SDS011;51788;45.124;38.966;2023-08-06T13:56:05;12.25;;;3.67;;
65202;SDS011;51788;45.124;38.966;2023-08-06T13:58:32;19.70;;;3.92;;
65202;SDS011;51788;45.124;38.966;2023-08-06T14:00:59;15.45;;;3.33;;
65202;SDS011;51788;45.124;38.966;2023-08-06T14:03:25;14.80;;;3.38;;
65202;SDS011;51788;45.124;38.966;2023-08-06T14:05:51;18.27;;;3.75;;
65202;SDS011;51788;45.124;38.966;2023-08-06T14:08:17;22.15;;;4.00;;
65202;SDS011;51788;45.124;38.966;2023-08-06T14:10:46;14.40;;;3.00;;
65202;SDS011;51788;45.124;38.966;2023-08-06T14:13:12;11.88;;;3.22;;
65202;SDS011;51788;45.124;38.966;2023-08-06T14:15:38;20.17;;;2.83;;
65202;SDS011;51788;45.124;38.966;2023-08-06T14:18:07;21.33;;;3.67;;
65202;SDS011;51788;45.124;38.966;2023-08-06T14:20:36;14.45;;;2.80;;
65202;SDS011;51788;45.124;38.966;2023-08-06T14:23:02;14.45;;;2.92;;
65202;SDS011;51788;45.124;38.966;2023-08-06T14:25:28;12.25;;;2.58;;
65202;SDS011;51788;45.124;38.966;2023-08-06T14:27:54;12.73;;;2.80;;
65202;SDS011;51788;45.124;38.966;2023-08-06T14:30:20;4.70;;;2.83;;
65202;SDS011;51788;45.124;38.966;2023-08-06T14:32:46;13.10;;;2.97;;